WetterOnline ( https://www.wetteronline.de )

Wetter aktuell Lampertswalde

Aktuelles Wetter: Oschatz (152m)

6-stündlich | Neueste Meldungen
Ortszeit Temperatur Wetter
Di, 11.08. 2:00 20.3° C bedeckt
Mo, 10.08. 20:00 23.1° C bedeckt
Mo, 10.08. 14:00 22.3° C bewölkt
Mo, 10.08. 8:00 19.6° C leichter Regen
Mo, 10.08. 2:00 25.0° C wolkig
So, 09.08. 20:00 30.8° C wolkig
So, 09.08. 14:00 35.4° C leicht bewölkt
So, 09.08. 8:00 22.6° C fast wolkenlos
Ortszeit Temperatur Wetter
Di, 11.08. 3:00 20.6° C bedeckt
Di, 11.08. 2:50 20.6° C bedeckt
Di, 11.08. 2:40 20.7° C bedeckt
Di, 11.08. 2:30 20.3° C bedeckt
Di, 11.08. 2:20 20.3° C bedeckt
Di, 11.08. 2:10 20.4° C bedeckt
Di, 11.08. 2:00 20.3° C bedeckt
Di, 11.08. 1:30 20.5° C bedeckt
Di, 11.08. 1:00 21.1° C bedeckt
Di, 11.08. 0:30 21.2° C bedeckt
Di, 11.08. 0:00 21.4° C bedeckt
Ortszeit Relative Feuchte Sichtweite
Di, 11.08. 2:00 93% 6 km
Mo, 10.08. 20:00 73% 30 km
Mo, 10.08. 14:00 78% 50 km
Mo, 10.08. 8:00 88% 19 km
Mo, 10.08. 2:00 54% 40 km
So, 09.08. 20:00 35% 40 km
So, 09.08. 14:00 22% 45 km
So, 09.08. 8:00 56% 35 km
Ortszeit Relative Feuchte Sichtweite
Di, 11.08. 3:00 93% 7 km
Di, 11.08. 2:50 93% -
Di, 11.08. 2:40 92% -
Di, 11.08. 2:30 93% 6 km
Di, 11.08. 2:20 93% -
Di, 11.08. 2:10 93% -
Di, 11.08. 2:00 93% 6 km
Di, 11.08. 1:30 93% 8 km
Di, 11.08. 1:00 88% 11 km
Di, 11.08. 0:30 87% 11 km
Di, 11.08. 0:00 87% 14 km
Ortszeit Niederschlagsmenge Niederschlagsart
Di, 11.08. 2:00 0.0 l/m2 in 6 Std. -
Mo, 10.08. 20:00 11 l/m2 in 12 Std. Regen
Mo, 10.08. 14:00 11 l/m2 in 6 Std. Regenschauer
Mo, 10.08. 8:00 33 l/m2 in 12 Std. Regenschauer
Mo, 10.08. 2:00 0.0 l/m2 in 6 Std. -
So, 09.08. 20:00 0.0 l/m2 in 12 Std. -
So, 09.08. 14:00 0.0 l/m2 in 6 Std. -
So, 09.08. 8:00 0.0 l/m2 in 12 Std. -
Ortszeit Niederschlagsmenge Niederschlagsart
Di, 11.08. 3:00 0.0 l/m2 in 1 Std. -
Di, 11.08. 2:50 keine Meldung -
Di, 11.08. 2:40 keine Meldung -
Di, 11.08. 2:30 0.0 l/m2 in 1 Std. -
Di, 11.08. 2:20 keine Meldung -
Di, 11.08. 2:10 keine Meldung -
Di, 11.08. 2:00 0.0 l/m2 in 1 Std. -
Di, 11.08. 1:30 0.0 l/m2 in 1 Std. -
Di, 11.08. 1:00 0.0 l/m2 in 1 Std. -
Di, 11.08. 0:30 0.0 l/m2 in 1 Std. -
Di, 11.08. 0:00 0.0 l/m2 in 1 Std. -
Ortszeit Stärke Spitze Richtung
km/h Bft. km/h Grad Sektor
Di, 11.08. 2:00 6 1 15 220° SW
Mo, 10.08. 20:00 9 2 19 50° NO
Mo, 10.08. 14:00 4 1 36 120° SO
Mo, 10.08. 8:00 7 2 43 300° NW
Mo, 10.08. 2:00 7 2 25 50° NO
So, 09.08. 20:00 11 2 29 40° NO
So, 09.08. 14:00 11 2 22 10° N
So, 09.08. 8:00 2 1 9 180° S
Ortszeit Stärke Spitze Richtung
km/h Bft. km/h Grad Sektor
Di, 11.08. 3:00 0 0 4 - -
Di, 11.08. 2:50 0 0 - 190° S
Di, 11.08. 2:40 2 1 - 60° NO
Di, 11.08. 2:30 2 1 6 250° W
Di, 11.08. 2:20 2 1 - 250° W
Di, 11.08. 2:10 4 1 - 240° SW
Di, 11.08. 2:00 6 1 7 220° SW
Di, 11.08. 1:30 4 1 4 160° S
Di, 11.08. 1:00 4 1 7 80° O
Di, 11.08. 0:30 4 1 7 50° NO
Di, 11.08. 0:00 4 1 11 110° O
Ortszeit Untergrenze Bedeckung Gattung
total tief tief mittel hoch
Di, 11.08. 2:00 3300 m 8/8 8/8 - - -
Mo, 10.08. 20:00 3600 m 8/8 8/8 - - -
Mo, 10.08. 14:00 2400 m 8/8 4/8 - - -
Mo, 10.08. 8:00 1500 m 8/8 4/8 - - -
Mo, 10.08. 2:00 7500 m 8/8 0/8 - - -
So, 09.08. 20:00 3600 m 8/8 3/8 - - -
So, 09.08. 14:00 10500 m 3/8 0/8 - - -
So, 09.08. 8:00 3000 m 1/8 1/8 - - -
Ortszeit Bedeckungsgrad in Achtel und Wolkenuntergrenze
Di, 11.08. 3:00 8(3300m)
Di, 11.08. 2:50 8(3300m)
Di, 11.08. 2:40 8(3300m)
Di, 11.08. 2:30 8(3300m)
Di, 11.08. 2:20 8(3300m)
Di, 11.08. 2:10 8(3300m)
Di, 11.08. 2:00 8(3300m)
Di, 11.08. 1:30 7(3300m) 8(4200m) 8(5700m)
Di, 11.08. 1:00 7(3300m) 7(3900m) 8(5700m)
Di, 11.08. 0:30 3(3300m) 8(3900m) 8(5700m)
Di, 11.08. 0:00 8(3600m)
Ortszeit Luftdruck NN (hPa) Tendenz (hPa in 3 Std.)
Di, 11.08. 2:00 1018 + 0,3
Mo, 10.08. 20:00 1017 - 0,6
Mo, 10.08. 14:00 1018 - 0,8
Mo, 10.08. 8:00 1017 + 0,3
Mo, 10.08. 2:00 1016 - 0,2
So, 09.08. 20:00 1015 - 0,3
So, 09.08. 14:00 1016 - 1,3
So, 09.08. 8:00 1019 + 0,3
Ortszeit Luftdruck NN (hPa) Tendenz (hPa in 3 Std.)
Di, 11.08. 3:00 1018 - 0,2
Di, 11.08. 2:50 1018 keine Meldung
Di, 11.08. 2:40 1018 keine Meldung
Di, 11.08. 2:30 1018 + 0,1
Di, 11.08. 2:20 1018 keine Meldung
Di, 11.08. 2:10 1018 keine Meldung
Di, 11.08. 2:00 1018 + 0,3
Di, 11.08. 1:30 1018 0,0
Di, 11.08. 1:00 1018 + 0,3
Di, 11.08. 0:30 1018 + 0,6
Di, 11.08. 0:00 1018 + 0,8
Ortszeit Schneehöhe (cm)
Di, 11.08. 2:00 -
Mo, 10.08. 20:00 -
Mo, 10.08. 14:00 -
Mo, 10.08. 8:00 -
Mo, 10.08. 2:00 -
So, 09.08. 20:00 -
So, 09.08. 14:00 -
So, 09.08. 8:00 -
Ortszeit Schneehöhe (cm)
Di, 11.08. 3:00 -
Di, 11.08. 2:50 -
Di, 11.08. 2:40 -
Di, 11.08. 2:30 -
Di, 11.08. 2:20 -
Di, 11.08. 2:10 -
Di, 11.08. 2:00 -
Di, 11.08. 1:30 -
Di, 11.08. 1:00 -
Di, 11.08. 0:30 -
Di, 11.08. 0:00 -
Link zu dieser Seite / Seite empfehlen

Das Wetter in ...